createdAt,value
2019-03-08T00:01:41.336Z,2.00
2019-03-08T00:04:14.135Z,2.43
2019-03-08T00:06:46.798Z,2.10
2019-03-08T00:09:19.412Z,2.10
2019-03-08T00:11:52.055Z,2.10
2019-03-08T00:14:24.671Z,2.40
2019-03-08T00:16:57.314Z,2.40
2019-03-08T00:19:29.930Z,2.20
2019-03-08T00:22:02.558Z,1.83
2019-03-08T00:24:35.316Z,2.10
2019-03-08T00:27:08.245Z,2.20
2019-03-08T00:29:40.862Z,2.33
2019-03-08T00:32:13.570Z,2.27
2019-03-08T00:34:46.187Z,2.20
2019-03-08T00:37:18.842Z,2.40
2019-03-08T00:39:51.484Z,2.27
2019-03-08T00:42:24.303Z,2.40
2019-03-08T00:44:56.946Z,2.30
2019-03-08T00:47:29.622Z,2.77
2019-03-08T00:50:02.262Z,2.53
2019-03-08T00:52:34.902Z,2.50
2019-03-08T00:55:07.574Z,2.73
2019-03-08T00:57:40.543Z,2.50
2019-03-08T01:00:15.485Z,2.50
2019-03-08T01:02:48.125Z,2.30
2019-03-08T01:05:20.764Z,2.50
2019-03-08T01:07:53.418Z,2.70
2019-03-08T01:10:26.060Z,2.30
2019-03-08T01:12:58.706Z,2.20
2019-03-08T01:15:31.340Z,2.20
2019-03-08T01:18:04.054Z,2.17
2019-03-08T01:20:36.710Z,2.40
2019-03-08T01:23:09.524Z,2.30
2019-03-08T01:25:42.145Z,3.00
2019-03-08T01:28:15.029Z,2.47
2019-03-08T01:30:47.662Z,2.47
2019-03-08T01:33:20.738Z,2.40
2019-03-08T01:35:53.354Z,2.50
2019-03-08T01:38:26.002Z,2.20
2019-03-08T01:40:58.629Z,2.43
2019-03-08T01:43:31.306Z,2.10
2019-03-08T01:46:03.921Z,2.70
2019-03-08T01:48:36.562Z,2.40
2019-03-08T01:51:09.189Z,2.17
2019-03-08T01:53:41.826Z,2.30
2019-03-08T01:56:14.738Z,2.93
2019-03-08T01:58:47.379Z,2.73
2019-03-08T02:01:20.027Z,2.20
2019-03-08T02:03:52.657Z,2.73
2019-03-08T02:06:25.294Z,1.80
2019-03-08T02:08:57.950Z,2.17
2019-03-08T02:11:30.580Z,2.10
2019-03-08T02:14:03.210Z,2.20
2019-03-08T02:16:35.850Z,2.10
2019-03-08T02:19:08.498Z,2.20
2019-03-08T02:21:41.125Z,2.20
2019-03-08T02:24:13.765Z,2.30
2019-03-08T02:26:46.407Z,2.30
2019-03-08T02:29:19.326Z,2.37
2019-03-08T02:31:51.991Z,2.20
2019-03-08T02:34:24.631Z,2.30
2019-03-08T02:36:57.267Z,2.17
2019-03-08T02:39:29.937Z,2.20
2019-03-08T02:42:02.550Z,2.07
2019-03-08T02:44:35.206Z,2.47
2019-03-08T02:47:07.839Z,2.07
2019-03-08T02:49:40.487Z,2.20
2019-03-08T02:52:13.182Z,2.27
2019-03-08T02:54:45.848Z,2.40
2019-03-08T02:57:18.454Z,2.30
2019-03-08T02:59:51.113Z,2.30
2019-03-08T03:02:23.767Z,2.13
2019-03-08T03:04:56.405Z,2.17
2019-03-08T03:07:29.034Z,2.50
2019-03-08T03:10:01.682Z,2.30
2019-03-08T03:12:34.322Z,2.00
2019-03-08T03:15:07.010Z,2.50
2019-03-08T03:17:39.693Z,2.10
2019-03-08T03:20:12.394Z,2.40
2019-03-08T03:22:45.070Z,2.43
2019-03-08T03:25:17.991Z,2.20
2019-03-08T03:27:50.679Z,2.40
2019-03-08T03:30:23.315Z,2.43
2019-03-08T03:32:55.949Z,2.00
2019-03-08T03:35:28.588Z,2.40
2019-03-08T03:38:01.221Z,2.00
2019-03-08T03:40:33.855Z,1.90
2019-03-08T03:43:06.530Z,2.30
2019-03-08T03:45:39.168Z,1.90
2019-03-08T03:48:11.931Z,2.40
2019-03-08T03:50:44.570Z,2.57
2019-03-08T03:53:17.194Z,2.00
2019-03-08T03:55:49.826Z,1.73
2019-03-08T03:58:22.537Z,2.23
2019-03-08T04:00:57.394Z,2.50
2019-03-08T04:03:31.140Z,2.30
2019-03-08T04:06:03.961Z,2.00
2019-03-08T04:08:36.567Z,1.90
2019-03-08T04:11:09.225Z,2.30
2019-03-08T04:13:41.882Z,2.23
2019-03-08T04:16:14.511Z,2.40
2019-03-08T04:18:47.147Z,2.30
2019-03-08T04:21:19.777Z,2.23
2019-03-08T04:23:52.399Z,2.50
2019-03-08T04:26:25.038Z,2.83
2019-03-08T04:28:57.689Z,2.20
2019-03-08T04:31:30.441Z,2.90
2019-03-08T04:34:04.093Z,2.57
2019-03-08T04:36:36.974Z,2.47
2019-03-08T04:39:10.657Z,2.77
2019-03-08T04:41:43.306Z,3.13
2019-03-08T04:44:15.975Z,2.83
2019-03-08T04:46:48.626Z,2.70
2019-03-08T04:49:21.252Z,2.73
2019-03-08T04:51:53.978Z,2.70
2019-03-08T04:54:27.086Z,2.37
2019-03-08T04:56:59.732Z,2.47
2019-03-08T04:59:32.359Z,2.57
2019-03-08T05:02:04.995Z,2.40
2019-03-08T05:04:37.615Z,2.00
2019-03-08T05:07:10.262Z,2.47
2019-03-08T05:09:42.893Z,2.20
2019-03-08T05:12:15.562Z,2.50
2019-03-08T05:14:48.342Z,2.40
2019-03-08T05:17:21.253Z,2.53
2019-03-08T05:19:53.883Z,2.43
2019-03-08T05:22:26.522Z,2.37
2019-03-08T05:24:59.150Z,2.20
2019-03-08T05:27:31.888Z,2.10
2019-03-08T05:30:05.074Z,2.60
2019-03-08T05:32:37.718Z,2.10
2019-03-08T05:35:10.379Z,2.50
2019-03-08T05:37:43.036Z,2.10
2019-03-08T05:40:15.744Z,2.63
2019-03-08T05:42:48.378Z,2.77
2019-03-08T05:45:21.006Z,2.30
2019-03-08T05:47:53.669Z,2.90
2019-03-08T05:50:26.587Z,2.70
2019-03-08T05:52:59.325Z,2.80
2019-03-08T05:55:31.950Z,3.00
2019-03-08T05:58:21.692Z,3.40
2019-03-08T06:00:54.543Z,3.17
2019-03-08T06:03:27.210Z,3.00
2019-03-08T06:05:59.845Z,2.90
2019-03-08T06:08:33.927Z,3.20
2019-03-08T06:11:07.042Z,3.07
2019-03-08T06:13:39.693Z,3.73
2019-03-08T06:16:12.322Z,3.60
2019-03-08T06:18:44.983Z,3.63
2019-03-08T06:21:17.610Z,3.50
2019-03-08T06:23:50.264Z,3.33
2019-03-08T06:26:22.900Z,3.97
2019-03-08T06:28:55.572Z,3.90
2019-03-08T06:31:28.204Z,3.67
2019-03-08T06:34:03.212Z,3.93
2019-03-08T06:36:35.866Z,4.43
2019-03-08T06:39:08.585Z,4.80
2019-03-08T06:41:41.326Z,4.87
2019-03-08T06:44:13.967Z,6.47
2019-03-08T06:46:46.670Z,6.10
2019-03-08T06:49:19.387Z,5.90
2019-03-08T06:51:52.054Z,6.30
2019-03-08T06:54:24.690Z,6.73
2019-03-08T06:56:57.690Z,6.57
2019-03-08T06:59:30.365Z,7.93
2019-03-08T07:02:02.997Z,6.60
2019-03-08T07:04:35.863Z,6.03
2019-03-08T07:07:08.593Z,5.57
2019-03-08T07:09:41.229Z,6.10
2019-03-08T07:12:13.858Z,5.40
2019-03-08T07:14:46.582Z,5.73
2019-03-08T07:17:20.581Z,5.73
2019-03-08T07:19:53.382Z,5.20
2019-03-08T07:22:27.369Z,5.60
2019-03-08T07:25:00.326Z,6.23
2019-03-08T07:27:33.011Z,5.90
2019-03-08T07:30:06.254Z,5.70
2019-03-08T07:32:38.892Z,5.73
2019-03-08T07:35:11.535Z,5.43
2019-03-08T07:37:44.225Z,6.00
2019-03-08T07:40:16.870Z,6.03
2019-03-08T07:42:50.014Z,5.63
2019-03-08T07:45:22.755Z,6.13
2019-03-08T07:47:55.383Z,5.13
2019-03-08T07:50:28.046Z,5.63
2019-03-08T07:53:00.723Z,5.50
2019-03-08T07:55:34.130Z,5.60
2019-03-08T07:58:07.107Z,4.80
2019-03-08T08:00:39.758Z,5.87
2019-03-08T08:03:12.380Z,5.00
2019-03-08T08:05:45.026Z,5.17
2019-03-08T08:08:17.657Z,4.60
2019-03-08T08:10:50.315Z,5.10
2019-03-08T08:13:22.942Z,4.60
2019-03-08T08:15:55.854Z,5.00
2019-03-08T08:18:28.847Z,5.00
2019-03-08T08:21:01.526Z,5.10
2019-03-08T08:23:35.306Z,5.77
2019-03-08T08:26:08.548Z,6.50
2019-03-08T08:28:49.684Z,6.37
2019-03-08T08:31:15.563Z,5.47
2019-03-08T08:33:48.266Z,5.60
2019-03-08T08:36:22.441Z,5.53
2019-03-08T08:38:55.093Z,5.60
2019-03-08T08:41:27.797Z,5.97
2019-03-08T08:44:00.432Z,5.60
2019-03-08T08:46:33.145Z,5.57
2019-03-08T08:49:05.953Z,6.37
2019-03-08T08:51:38.583Z,6.13
2019-03-08T08:54:11.287Z,6.40
2019-03-08T08:56:43.938Z,6.17
2019-03-08T08:59:16.915Z,5.70
2019-03-08T09:01:49.566Z,6.00
2019-03-08T09:04:22.203Z,5.87
2019-03-08T09:06:54.854Z,6.50
2019-03-08T09:09:27.483Z,5.37
2019-03-08T09:12:00.172Z,5.60
2019-03-08T09:14:32.802Z,5.63
2019-03-08T09:17:05.493Z,5.23
2019-03-08T09:19:38.157Z,5.07
2019-03-08T09:22:11.102Z,6.00
2019-03-08T09:24:43.807Z,6.20
2019-03-08T09:27:17.034Z,6.03
2019-03-08T09:29:49.671Z,5.60
2019-03-08T09:32:22.327Z,5.03
2019-03-08T09:34:55.033Z,6.00
2019-03-08T09:37:27.682Z,5.63
2019-03-08T09:40:00.325Z,5.13
2019-03-08T09:42:33.070Z,5.53
2019-03-08T09:45:06.030Z,5.93
2019-03-08T09:47:39.786Z,6.07
2019-03-08T09:50:12.438Z,5.70
2019-03-08T09:52:45.095Z,5.20
2019-03-08T09:55:20.266Z,5.67
2019-03-08T09:57:52.971Z,5.10
2019-03-08T10:00:25.622Z,5.27
2019-03-08T10:02:58.266Z,5.03
2019-03-08T10:05:33.278Z,4.90
2019-03-08T10:08:06.050Z,5.33
2019-03-08T10:10:38.694Z,5.40
2019-03-08T10:13:11.352Z,5.43
2019-03-08T10:15:44.002Z,5.13
2019-03-08T10:18:16.639Z,4.77
2019-03-08T10:20:49.286Z,4.73
2019-03-08T10:23:21.925Z,4.13
2019-03-08T10:25:54.578Z,4.37
2019-03-08T10:28:27.912Z,3.83
2019-03-08T10:31:00.549Z,3.30
2019-03-08T10:33:33.193Z,3.40
2019-03-08T10:36:05.837Z,3.20
2019-03-08T10:38:38.483Z,3.53
2019-03-08T10:41:11.134Z,3.93
2019-03-08T10:43:43.803Z,2.93
2019-03-08T10:46:16.435Z,3.67
2019-03-08T10:48:49.086Z,3.17
2019-03-08T10:51:21.906Z,3.57
2019-03-08T10:54:00.694Z,3.10
2019-03-08T10:56:28.914Z,3.00
2019-03-08T10:59:01.581Z,3.27
2019-03-08T11:01:34.519Z,3.00
2019-03-08T11:04:07.183Z,3.00
2019-03-08T11:06:39.822Z,2.90
2019-03-08T11:09:15.936Z,2.70
2019-03-08T11:11:48.559Z,2.93
2019-03-08T11:14:21.340Z,3.40
2019-03-08T11:16:53.988Z,3.37
2019-03-08T11:19:27.709Z,3.13
2019-03-08T11:22:00.458Z,3.33
2019-03-08T11:24:33.151Z,3.30
2019-03-08T11:27:05.810Z,3.23
2019-03-08T11:29:38.552Z,2.83
2019-03-08T11:32:11.197Z,3.50
2019-03-08T11:34:51.985Z,3.53
2019-03-08T11:37:18.502Z,4.27
2019-03-08T11:39:52.431Z,4.50
2019-03-08T11:42:25.193Z,3.97
2019-03-08T11:44:58.230Z,4.10
2019-03-08T11:47:30.873Z,4.30
2019-03-08T11:50:04.043Z,3.90
2019-03-08T11:52:36.964Z,3.80
2019-03-08T11:55:09.748Z,3.77
2019-03-08T11:57:42.394Z,3.87
2019-03-08T12:00:15.058Z,3.90
2019-03-08T12:02:47.696Z,4.20
2019-03-08T12:05:21.984Z,4.07
2019-03-08T12:07:54.707Z,4.77
2019-03-08T12:10:27.378Z,5.07
2019-03-08T12:13:00.027Z,4.10
2019-03-08T12:15:32.719Z,4.47
2019-03-08T12:18:05.601Z,4.27
2019-03-08T12:20:38.249Z,4.00
2019-03-08T12:23:10.908Z,3.80
2019-03-08T12:25:43.549Z,3.90
2019-03-08T12:28:16.194Z,3.80
2019-03-08T12:30:48.889Z,3.97
2019-03-08T12:33:21.511Z,4.27
2019-03-08T12:35:54.176Z,4.20
2019-03-08T12:38:26.806Z,4.50
2019-03-08T12:40:59.458Z,3.60
2019-03-08T12:43:32.118Z,3.70
2019-03-08T12:46:04.779Z,3.97
2019-03-08T12:48:37.406Z,3.87
2019-03-08T12:51:10.512Z,4.40
2019-03-08T12:53:43.146Z,4.10
2019-03-08T12:56:15.789Z,3.50
2019-03-08T12:58:48.434Z,3.97
2019-03-08T13:01:21.098Z,3.90
2019-03-08T13:03:53.742Z,3.50
2019-03-08T13:06:26.411Z,3.73
2019-03-08T13:08:59.167Z,3.40
2019-03-08T13:11:33.493Z,3.30
2019-03-08T13:14:06.342Z,3.47
2019-03-08T13:16:38.994Z,3.13
2019-03-08T13:19:11.650Z,3.30
2019-03-08T13:21:44.332Z,3.67
2019-03-08T13:24:17.245Z,4.03
2019-03-08T13:26:49.910Z,3.33
2019-03-08T13:29:22.573Z,3.60
2019-03-08T13:31:55.234Z,2.63
2019-03-08T13:34:27.951Z,3.07
2019-03-08T13:37:00.651Z,2.70
2019-03-08T13:39:34.872Z,3.50
2019-03-08T13:42:07.538Z,3.20
2019-03-08T13:44:40.177Z,3.33
2019-03-08T13:47:12.830Z,2.87
2019-03-08T13:49:45.546Z,3.10
2019-03-08T13:52:18.214Z,2.70
2019-03-08T13:54:50.862Z,2.73
2019-03-08T13:57:23.901Z,2.10
2019-03-08T13:59:56.525Z,2.43
2019-03-08T14:02:29.228Z,2.23
2019-03-08T14:05:01.869Z,2.50
2019-03-08T14:07:35.784Z,2.70
2019-03-08T14:10:11.186Z,2.43
2019-03-08T14:12:43.840Z,2.37
2019-03-08T14:15:16.490Z,2.50
2019-03-08T14:17:48.883Z,3.23
2019-03-08T14:20:21.558Z,2.47
2019-03-08T14:22:54.208Z,2.20
2019-03-08T14:25:26.843Z,1.90
2019-03-08T14:27:59.522Z,2.13
2019-03-08T14:30:35.956Z,2.60
2019-03-08T14:33:06.942Z,2.23
2019-03-08T14:35:39.580Z,2.20
2019-03-08T14:38:12.229Z,2.50
2019-03-08T14:40:45.030Z,2.30
2019-03-08T14:43:17.945Z,2.00
2019-03-08T14:45:50.687Z,1.83
2019-03-08T14:48:23.333Z,2.30
2019-03-08T14:50:56.690Z,2.03
2019-03-08T14:53:32.891Z,1.57
2019-03-08T14:56:03.759Z,1.90
2019-03-08T14:58:40.280Z,1.80
2019-03-08T15:01:13.778Z,2.00
2019-03-08T15:03:47.335Z,2.00
2019-03-08T15:06:20.890Z,2.20
2019-03-08T15:08:55.068Z,1.83
2019-03-08T15:11:29.104Z,2.13
2019-03-08T15:14:03.657Z,2.00
2019-03-08T15:16:39.237Z,1.80
2019-03-08T15:19:12.640Z,1.80
2019-03-08T15:21:51.295Z,2.00
2019-03-08T15:24:26.091Z,1.77
2019-03-08T15:26:59.623Z,1.73
2019-03-08T15:29:33.191Z,2.00
2019-03-08T15:32:06.766Z,1.80
2019-03-08T15:34:40.353Z,1.80
2019-03-08T15:37:13.857Z,1.80
2019-03-08T15:39:46.622Z,1.63
2019-03-08T15:42:19.274Z,2.23
2019-03-08T15:44:51.970Z,2.03
2019-03-08T15:47:24.601Z,1.80
2019-03-08T15:49:57.441Z,1.87
2019-03-08T15:52:31.147Z,1.70
2019-03-08T15:55:05.101Z,1.83
2019-03-08T15:57:38.857Z,2.20
2019-03-08T16:00:17.827Z,1.83
2019-03-08T16:02:50.663Z,1.63
2019-03-08T16:05:23.767Z,2.13
2019-03-08T16:08:01.542Z,1.90
2019-03-08T16:10:32.062Z,2.60
2019-03-08T16:13:04.732Z,2.50
2019-03-08T16:15:37.422Z,2.20
2019-03-08T16:18:10.072Z,2.70
2019-03-08T16:20:42.989Z,2.07
2019-03-08T16:23:15.925Z,2.30
2019-03-08T16:25:48.889Z,1.87
2019-03-08T16:28:21.864Z,2.13
2019-03-08T16:30:54.775Z,2.50
2019-03-08T16:33:27.367Z,2.23
2019-03-08T16:36:00.008Z,3.00
2019-03-08T16:38:32.623Z,3.10
2019-03-08T16:41:05.357Z,3.13
2019-03-08T16:43:38.011Z,3.03
2019-03-08T16:46:10.970Z,2.67
2019-03-08T16:48:45.760Z,3.30
2019-03-08T16:51:18.224Z,3.27
2019-03-08T16:53:50.865Z,3.23
2019-03-08T16:56:23.574Z,3.27
2019-03-08T16:58:56.205Z,2.80
2019-03-08T17:01:29.143Z,3.20
2019-03-08T17:04:01.765Z,3.27
2019-03-08T17:06:34.433Z,2.97
2019-03-08T17:09:09.122Z,2.80
2019-03-08T17:11:42.046Z,2.97
2019-03-08T17:14:15.192Z,3.00
2019-03-08T17:16:47.944Z,2.33
2019-03-08T17:19:20.601Z,2.87
2019-03-08T17:21:53.383Z,2.53
2019-03-08T17:24:26.034Z,2.70
2019-03-08T17:26:58.673Z,2.60
2019-03-08T17:29:31.322Z,2.57
2019-03-08T17:32:04.193Z,2.93
2019-03-08T17:34:36.865Z,3.27
2019-03-08T17:37:09.673Z,3.13
2019-03-08T17:39:42.318Z,3.27
2019-03-08T17:42:15.330Z,3.53
2019-03-08T17:44:48.698Z,4.23
2019-03-08T17:47:21.587Z,4.90
2019-03-08T17:49:54.366Z,4.83
2019-03-08T17:52:27.233Z,6.43
2019-03-08T17:54:59.855Z,9.10
2019-03-08T17:57:32.491Z,5.93
2019-03-08T18:00:06.994Z,5.13
2019-03-08T18:02:39.810Z,4.00
2019-03-08T18:05:12.474Z,3.10
2019-03-08T18:07:45.193Z,2.80
2019-03-08T18:10:17.931Z,2.97
2019-03-08T18:12:50.859Z,2.57
2019-03-08T18:15:23.486Z,2.50
2019-03-08T18:17:56.146Z,3.30
2019-03-08T18:20:28.814Z,3.40
2019-03-08T18:23:01.798Z,3.03
2019-03-08T18:25:34.749Z,3.13
2019-03-08T18:28:07.519Z,2.90
2019-03-08T18:30:40.231Z,2.80
2019-03-08T18:33:13.179Z,2.80
2019-03-08T18:35:45.844Z,2.63
2019-03-08T18:38:18.574Z,2.80
2019-03-08T18:40:51.197Z,2.60
2019-03-08T18:43:24.130Z,3.10
2019-03-08T18:45:56.751Z,2.80
2019-03-08T18:48:29.410Z,2.57
2019-03-08T18:51:02.035Z,2.80
2019-03-08T18:53:34.847Z,2.90
2019-03-08T18:56:07.474Z,2.80
2019-03-08T18:58:40.133Z,3.10
2019-03-08T19:01:12.765Z,3.47
2019-03-08T19:03:45.642Z,3.80
2019-03-08T19:06:18.278Z,3.57
2019-03-08T19:08:50.930Z,4.43
2019-03-08T19:11:23.569Z,4.00
2019-03-08T19:13:56.582Z,4.20
2019-03-08T19:16:29.203Z,4.90
2019-03-08T19:19:01.860Z,4.23
2019-03-08T19:21:34.519Z,4.57
2019-03-08T19:24:07.438Z,4.57
2019-03-08T19:26:40.076Z,4.43
2019-03-08T19:29:14.486Z,4.27
2019-03-08T19:31:47.150Z,4.97
2019-03-08T19:34:19.971Z,4.67
2019-03-08T19:36:52.601Z,4.60
2019-03-08T19:39:25.583Z,4.53
2019-03-08T19:41:58.290Z,4.40
2019-03-08T19:44:30.993Z,4.87
2019-03-08T19:47:03.643Z,4.80
2019-03-08T19:49:36.290Z,5.40
2019-03-08T19:52:08.938Z,4.23
2019-03-08T19:54:41.910Z,5.20
2019-03-08T19:57:14.535Z,5.90
2019-03-08T19:59:47.303Z,5.70
2019-03-08T20:02:19.965Z,5.40
2019-03-08T20:04:52.978Z,6.17
2019-03-08T20:07:25.606Z,5.87
2019-03-08T20:09:58.259Z,5.90
2019-03-08T20:12:30.894Z,5.73
2019-03-08T20:15:04.122Z,5.30
2019-03-08T20:17:36.751Z,5.33
2019-03-08T20:20:10.590Z,8.07
2019-03-08T20:22:43.217Z,6.73
2019-03-08T20:25:15.934Z,7.20
2019-03-08T20:27:48.570Z,8.80
2019-03-08T20:30:21.214Z,5.33
2019-03-08T20:32:53.843Z,4.90
2019-03-08T20:35:26.762Z,4.70
2019-03-08T20:37:59.402Z,5.00
2019-03-08T20:40:32.038Z,4.83
2019-03-08T20:43:04.657Z,5.53
2019-03-08T20:45:37.633Z,4.97
2019-03-08T20:48:10.275Z,4.83
2019-03-08T20:50:42.902Z,4.77
2019-03-08T20:53:15.537Z,5.27
2019-03-08T20:55:48.457Z,5.27
2019-03-08T20:58:21.150Z,4.83
2019-03-08T21:00:53.868Z,5.10
2019-03-08T21:03:26.518Z,5.40
2019-03-08T21:05:59.478Z,4.37
2019-03-08T21:08:32.169Z,4.50
2019-03-08T21:11:04.871Z,4.07
2019-03-08T21:13:37.661Z,4.00
2019-03-08T21:16:10.488Z,4.80
2019-03-08T21:18:43.206Z,4.47
2019-03-08T21:21:16.073Z,4.63
2019-03-08T21:23:51.200Z,3.80
2019-03-08T21:26:24.187Z,4.10
2019-03-08T21:28:56.833Z,4.00
2019-03-08T21:31:29.490Z,4.43
2019-03-08T21:34:04.982Z,4.20
2019-03-08T21:36:37.646Z,3.70
2019-03-08T21:39:10.288Z,4.20
2019-03-08T21:41:42.930Z,3.73
2019-03-08T21:44:23.738Z,3.90
2019-03-08T21:46:56.657Z,4.07
2019-03-08T21:49:29.347Z,4.73
2019-03-08T21:52:02.023Z,7.20
2019-03-08T21:54:34.859Z,4.93
2019-03-08T21:57:07.678Z,4.30
2019-03-08T21:59:40.340Z,4.50
2019-03-08T22:02:12.999Z,3.53
2019-03-08T22:04:45.627Z,4.47
2019-03-08T22:07:18.547Z,3.67
2019-03-08T22:09:51.182Z,3.50
2019-03-08T22:12:23.840Z,3.80
2019-03-08T22:15:00.478Z,3.87
2019-03-08T22:17:33.406Z,3.87
2019-03-08T22:20:06.058Z,3.90
2019-03-08T22:22:38.698Z,3.63
2019-03-08T22:25:11.331Z,3.87
2019-03-08T22:27:44.375Z,3.70
2019-03-08T22:30:17.031Z,3.50
2019-03-08T22:32:49.703Z,3.53
2019-03-08T22:35:22.362Z,4.13
2019-03-08T22:37:55.372Z,3.57
2019-03-08T22:40:27.997Z,3.47
2019-03-08T22:43:00.635Z,3.53
2019-03-08T22:45:33.258Z,3.63
2019-03-08T22:48:05.910Z,3.87
2019-03-08T22:50:38.533Z,3.20
2019-03-08T22:53:11.177Z,3.30
2019-03-08T22:55:43.793Z,3.10
2019-03-08T22:58:16.438Z,3.03
2019-03-08T23:00:52.155Z,3.00
2019-03-08T23:03:24.847Z,3.43
2019-03-08T23:05:57.515Z,3.20
2019-03-08T23:08:30.190Z,2.90
2019-03-08T23:11:02.814Z,3.10
2019-03-08T23:13:35.462Z,2.90
2019-03-08T23:16:08.199Z,3.07
2019-03-08T23:18:40.949Z,2.73
2019-03-08T23:21:13.571Z,3.37
2019-03-08T23:23:46.214Z,2.90
2019-03-08T23:26:18.848Z,3.50
2019-03-08T23:28:51.738Z,3.40
2019-03-08T23:31:24.383Z,3.47
2019-03-08T23:33:57.022Z,3.13
2019-03-08T23:36:29.659Z,3.47
2019-03-08T23:39:02.304Z,3.00
2019-03-08T23:41:34.922Z,3.03
2019-03-08T23:44:07.561Z,2.93
2019-03-08T23:46:40.189Z,2.70
2019-03-08T23:49:12.833Z,3.30
2019-03-08T23:51:45.478Z,2.80
2019-03-08T23:54:18.157Z,3.17
2019-03-08T23:56:50.789Z,3.30
2019-03-08T23:59:23.434Z,3.50
